createdAt,value
2023-03-18T00:02:19.065Z,24.40
2023-03-18T00:04:46.586Z,25.25
2023-03-18T00:07:13.037Z,23.00
2023-03-18T00:09:40.391Z,27.40
2023-03-18T00:12:08.398Z,23.60
2023-03-18T00:14:35.592Z,30.00
2023-03-18T00:17:02.046Z,27.75
2023-03-18T00:19:28.804Z,26.25
2023-03-18T00:21:55.941Z,22.80
2023-03-18T00:24:22.698Z,28.40
2023-03-18T00:26:49.185Z,25.40
2023-03-18T00:29:15.658Z,22.00
2023-03-18T00:31:42.229Z,25.25
2023-03-18T00:34:09.915Z,21.25
2023-03-18T00:36:37.373Z,23.80
2023-03-18T00:39:04.327Z,23.40
2023-03-18T00:41:33.216Z,23.60
2023-03-18T00:43:59.847Z,23.20
2023-03-18T00:46:27.974Z,20.40
2023-03-18T00:48:55.651Z,23.20
2023-03-18T00:51:22.951Z,22.00
2023-03-18T00:53:51.872Z,26.50
2023-03-18T00:56:19.836Z,24.60
2023-03-18T00:58:46.825Z,23.25
2023-03-18T01:01:13.934Z,23.00
2023-03-18T01:03:43.967Z,19.60
2023-03-18T01:06:11.662Z,22.00
2023-03-18T01:08:38.689Z,24.00
2023-03-18T01:11:05.300Z,22.00
2023-03-18T01:13:32.197Z,27.20
2023-03-18T01:15:59.135Z,30.20
2023-03-18T01:18:25.590Z,23.75
2023-03-18T01:20:52.044Z,25.75
2023-03-18T01:23:18.625Z,30.00
2023-03-18T01:25:45.675Z,30.25
2023-03-18T01:28:12.654Z,27.00
2023-03-18T01:30:39.452Z,31.00
2023-03-18T01:33:07.678Z,30.33
2023-03-18T01:35:35.818Z,26.00
2023-03-18T01:38:04.618Z,31.00
2023-03-18T01:40:35.961Z,22.00
2023-03-18T01:43:22.044Z,28.50
2023-03-18T01:45:50.172Z,31.00
2023-03-18T01:48:18.865Z,29.40
2023-03-18T01:50:47.664Z,28.00
2023-03-18T01:53:15.591Z,30.00
2023-03-18T01:55:43.439Z,30.00
2023-03-18T01:58:17.588Z,27.40
2023-03-18T02:00:46.926Z,25.50
2023-03-18T02:03:14.100Z,32.00
2023-03-18T02:05:40.706Z,27.75
2023-03-18T02:08:07.216Z,27.40
2023-03-18T02:10:34.358Z,21.80
2023-03-18T02:13:03.183Z,23.00
2023-03-18T02:15:30.459Z,26.25
2023-03-18T02:17:59.686Z,28.50
2023-03-18T02:21:04.460Z,26.80
2023-03-18T02:23:40.575Z,24.75
2023-03-18T02:26:24.659Z,24.00
2023-03-18T02:28:52.325Z,22.00
2023-03-18T02:31:19.957Z,28.00
2023-03-18T02:33:46.621Z,27.00
2023-03-18T02:36:21.037Z,32.60
2023-03-18T02:38:48.224Z,31.60
2023-03-18T02:41:18.941Z,29.60
2023-03-18T02:43:46.158Z,27.00
2023-03-18T02:46:18.997Z,23.50
2023-03-18T02:48:46.267Z,22.00
2023-03-18T02:51:14.818Z,21.00
2023-03-18T02:53:41.937Z,25.50
2023-03-18T02:56:08.934Z,25.00
2023-03-18T02:58:36.200Z,26.50
2023-03-18T03:01:03.255Z,20.50
2023-03-18T03:03:29.811Z,25.50
2023-03-18T03:05:56.543Z,23.00
2023-03-18T03:08:23.221Z,21.80
2023-03-18T03:10:51.320Z,21.40
2023-03-18T03:13:18.504Z,23.00
2023-03-18T03:15:45.043Z,22.00
2023-03-18T03:18:12.073Z,21.40
2023-03-18T03:20:39.098Z,24.00
2023-03-18T03:23:06.917Z,20.25
2023-03-18T03:25:34.196Z,19.00
2023-03-18T03:28:00.717Z,23.00
2023-03-18T03:30:27.708Z,19.40
2023-03-18T03:32:54.218Z,21.25
2023-03-18T03:35:21.100Z,21.50
2023-03-18T03:37:48.179Z,20.60
2023-03-18T03:40:16.973Z,16.00
2023-03-18T03:42:43.816Z,17.00
2023-03-18T03:45:10.997Z,20.60
2023-03-18T03:47:37.585Z,26.75
2023-03-18T03:50:05.988Z,20.00
2023-03-18T03:52:33.002Z,22.00
2023-03-18T03:55:00.807Z,23.50
2023-03-18T03:57:27.801Z,22.00
2023-03-18T03:59:54.274Z,23.80
2023-03-18T04:02:21.597Z,23.00
2023-03-18T04:04:48.102Z,27.00
2023-03-18T04:07:15.425Z,24.00
2023-03-18T04:09:42.478Z,29.20
2023-03-18T04:12:09.742Z,25.20
2023-03-18T04:14:36.255Z,22.40
2023-03-18T04:17:03.119Z,21.00
2023-03-18T04:19:30.494Z,25.00
2023-03-18T04:21:56.954Z,20.00
2023-03-18T04:24:23.798Z,27.80
2023-03-18T04:26:50.531Z,32.60
2023-03-18T04:29:16.999Z,23.50
2023-03-18T04:31:43.586Z,28.25
2023-03-18T04:34:10.028Z,26.00
2023-03-18T04:36:36.623Z,26.00
2023-03-18T04:39:03.215Z,26.20
2023-03-18T04:41:29.748Z,26.40
2023-03-18T04:43:57.764Z,28.00
2023-03-18T04:46:24.383Z,24.25
2023-03-18T04:48:51.455Z,28.00
2023-03-18T04:51:18.844Z,25.00
2023-03-18T04:53:45.332Z,25.00
2023-03-18T04:56:11.733Z,22.00
2023-03-18T04:58:38.246Z,23.50
2023-03-18T05:01:04.871Z,23.50
2023-03-18T05:03:31.478Z,28.50
2023-03-18T05:05:58.112Z,24.00
2023-03-18T05:08:24.621Z,21.75
2023-03-18T05:10:51.221Z,31.40
2023-03-18T05:13:17.698Z,32.40
2023-03-18T05:15:44.215Z,28.50
2023-03-18T05:18:10.689Z,31.60
2023-03-18T05:20:37.145Z,39.00
2023-03-18T05:23:04.391Z,41.25
2023-03-18T05:25:31.808Z,36.20
2023-03-18T05:27:58.709Z,27.00
2023-03-18T05:30:25.249Z,33.80
2023-03-18T05:32:51.842Z,33.00
2023-03-18T05:35:19.306Z,26.60
2023-03-18T05:37:45.985Z,26.00
2023-03-18T05:40:13.046Z,31.25
2023-03-18T05:42:55.027Z,23.60
2023-03-18T05:45:22.721Z,24.00
2023-03-18T05:47:49.306Z,23.50
2023-03-18T05:50:18.929Z,25.75
2023-03-18T05:52:45.425Z,26.20
2023-03-18T05:55:13.131Z,30.00
2023-03-18T05:57:40.643Z,39.75
2023-03-18T06:00:07.536Z,33.25
2023-03-18T06:02:34.093Z,23.50
2023-03-18T06:05:01.594Z,23.80
2023-03-18T06:07:28.990Z,26.40
2023-03-18T06:09:55.456Z,24.00
2023-03-18T06:12:24.092Z,30.00
2023-03-18T06:14:50.684Z,27.60
2023-03-18T06:17:17.330Z,30.00
2023-03-18T06:19:44.995Z,29.60
2023-03-18T06:22:11.911Z,34.20
2023-03-18T06:24:38.380Z,32.50
2023-03-18T06:27:04.806Z,36.50
2023-03-18T06:29:31.901Z,52.75
2023-03-18T06:31:58.366Z,69.25
2023-03-18T06:34:24.945Z,52.40
2023-03-18T06:36:52.411Z,46.75
2023-03-18T06:39:19.890Z,38.00
2023-03-18T06:41:46.610Z,37.20
2023-03-18T06:44:13.387Z,45.00
2023-03-18T06:46:42.663Z,35.20
2023-03-18T06:49:11.304Z,34.00
2023-03-18T06:51:37.744Z,36.75
2023-03-18T06:54:04.222Z,39.40
2023-03-18T06:56:30.765Z,34.40
2023-03-18T06:58:58.368Z,33.50
2023-03-18T07:01:25.202Z,34.25
2023-03-18T07:03:51.673Z,34.60
2023-03-18T07:06:18.888Z,30.75
2023-03-18T07:08:45.906Z,34.25
2023-03-18T07:11:12.449Z,29.00
2023-03-18T07:13:39.251Z,27.25
2023-03-18T07:16:05.886Z,32.00
2023-03-18T07:18:32.891Z,29.00
2023-03-18T07:20:59.752Z,32.40
2023-03-18T07:23:27.242Z,26.80
2023-03-18T07:25:53.731Z,28.50
2023-03-18T07:28:20.286Z,28.75
2023-03-18T07:30:47.361Z,25.00
2023-03-18T07:33:14.254Z,24.00
2023-03-18T07:35:41.772Z,27.00
2023-03-18T07:38:09.563Z,29.00
2023-03-18T07:40:36.554Z,24.00
2023-03-18T07:43:03.544Z,24.33
2023-03-18T07:45:31.532Z,28.60
2023-03-18T07:47:58.284Z,22.50
2023-03-18T07:50:25.109Z,26.00
2023-03-18T07:52:52.152Z,24.00
2023-03-18T07:55:18.609Z,26.00
2023-03-18T07:57:45.090Z,25.00
2023-03-18T08:00:12.523Z,36.60
2023-03-18T08:02:39.084Z,34.80
2023-03-18T08:05:07.177Z,44.50
2023-03-18T08:07:34.963Z,30.25
2023-03-18T08:10:01.903Z,28.60
2023-03-18T08:12:35.552Z,23.00
2023-03-18T08:15:12.254Z,20.00
2023-03-18T08:17:39.219Z,20.25
2023-03-18T08:20:06.267Z,18.40
2023-03-18T08:22:32.763Z,22.00
2023-03-18T08:24:59.238Z,23.50
2023-03-18T08:27:25.741Z,21.80
2023-03-18T08:29:52.391Z,25.00
2023-03-18T08:32:19.519Z,20.80
2023-03-18T08:34:46.652Z,20.00
2023-03-18T08:37:13.212Z,23.00
2023-03-18T08:39:39.748Z,22.00
2023-03-18T08:42:06.368Z,21.50
2023-03-18T08:44:33.204Z,17.75
2023-03-18T08:46:59.632Z,17.80
2023-03-18T08:49:26.349Z,19.00
2023-03-18T08:51:52.890Z,19.00
2023-03-18T08:54:20.304Z,17.00
2023-03-18T08:56:47.565Z,19.00
2023-03-18T08:59:14.214Z,20.00
2023-03-18T09:01:40.700Z,17.40
2023-03-18T09:04:07.358Z,17.00
2023-03-18T09:06:33.858Z,18.50
2023-03-18T09:09:00.301Z,21.00
2023-03-18T09:11:26.717Z,18.00
2023-03-18T09:13:53.706Z,14.00
2023-03-18T09:16:20.241Z,12.80
2023-03-18T09:18:48.792Z,13.00
2023-03-18T09:21:15.471Z,16.75
2023-03-18T09:23:41.955Z,14.00
2023-03-18T09:26:08.580Z,12.00
2023-03-18T09:28:35.126Z,10.00
2023-03-18T09:31:01.919Z,12.00
2023-03-18T09:33:28.463Z,7.75
2023-03-18T09:35:55.423Z,12.20
2023-03-18T09:38:22.526Z,9.00
2023-03-18T09:40:58.656Z,9.00
2023-03-18T09:43:34.147Z,7.75
2023-03-18T09:46:20.000Z,6.00
2023-03-18T09:48:57.189Z,8.80
2023-03-18T09:51:26.764Z,6.00
2023-03-18T09:53:56.910Z,5.25
2023-03-18T09:56:28.912Z,4.00
2023-03-18T09:58:58.156Z,5.00
2023-03-18T10:01:27.109Z,6.80
2023-03-18T10:04:05.662Z,6.00
2023-03-18T10:06:33.046Z,5.20
2023-03-18T10:09:08.891Z,5.60
2023-03-18T10:11:35.493Z,6.40
2023-03-18T10:14:08.684Z,4.00
2023-03-18T10:16:42.134Z,4.40
2023-03-18T10:19:09.669Z,5.00
2023-03-18T10:21:55.105Z,7.00
2023-03-18T10:24:21.529Z,5.00
2023-03-18T10:26:50.322Z,4.00
2023-03-18T10:29:16.704Z,5.00
2023-03-18T10:32:18.768Z,5.00
2023-03-18T10:34:45.206Z,5.00
2023-03-18T10:37:35.011Z,4.00
2023-03-18T10:40:02.412Z,5.00
2023-03-18T10:42:30.785Z,5.50
2023-03-18T10:45:07.080Z,8.40
2023-03-18T10:47:37.004Z,7.50
2023-03-18T10:50:11.042Z,4.75
2023-03-18T10:52:46.438Z,6.00
2023-03-18T10:55:17.116Z,7.00
2023-03-18T10:57:44.046Z,8.25
2023-03-18T11:00:30.225Z,6.00
2023-03-18T11:02:57.294Z,9.00
2023-03-18T11:05:28.469Z,6.75
2023-03-18T11:07:58.758Z,7.00
2023-03-18T11:10:26.580Z,5.33
2023-03-18T11:12:55.791Z,6.60
2023-03-18T11:15:24.159Z,7.75
2023-03-18T11:17:51.879Z,6.00
2023-03-18T11:20:24.716Z,5.50
2023-03-18T11:22:52.688Z,7.00
2023-03-18T11:25:20.943Z,6.00
2023-03-18T11:27:48.777Z,6.00
2023-03-18T11:30:32.754Z,4.00
2023-03-18T11:33:12.550Z,3.00
2023-03-18T11:35:39.046Z,3.00
2023-03-18T11:38:06.979Z,5.40
2023-03-18T11:40:33.871Z,3.00
2023-03-18T11:43:01.811Z,5.50
2023-03-18T11:45:47.418Z,4.50
2023-03-18T11:48:19.231Z,5.00
2023-03-18T11:51:02.319Z,4.00
2023-03-18T11:53:51.951Z,3.80
2023-03-18T11:56:19.058Z,4.25
2023-03-18T11:58:56.602Z,4.00
2023-03-18T12:01:32.768Z,4.00
2023-03-18T12:04:05.927Z,5.50
2023-03-18T12:06:39.041Z,4.50
2023-03-18T12:09:17.824Z,5.40
2023-03-18T12:12:03.227Z,5.80
2023-03-18T12:14:40.820Z,9.00
2023-03-18T12:17:23.428Z,6.00
2023-03-18T12:20:00.021Z,5.40
2023-03-18T12:22:26.519Z,8.00
2023-03-18T12:24:58.595Z,6.75
2023-03-18T12:27:34.080Z,8.00
2023-03-18T12:30:14.391Z,6.80
2023-03-18T12:32:56.366Z,5.00
2023-03-18T12:35:35.250Z,5.00
2023-03-18T12:38:21.930Z,5.00
2023-03-18T12:41:07.349Z,7.00
2023-03-18T12:43:45.440Z,4.50
2023-03-18T12:46:23.978Z,6.00
2023-03-18T12:48:54.465Z,8.00
2023-03-18T12:51:29.666Z,6.00
2023-03-18T12:53:58.747Z,5.00
2023-03-18T12:56:30.090Z,7.00
2023-03-18T12:59:02.411Z,5.00
2023-03-18T13:01:36.161Z,6.60
2023-03-18T13:04:05.047Z,6.50
2023-03-18T13:06:31.796Z,7.00
2023-03-18T13:09:16.818Z,4.50
2023-03-18T13:11:46.100Z,6.00
2023-03-18T13:14:15.319Z,6.00
2023-03-18T13:16:42.169Z,6.00
2023-03-18T13:19:08.986Z,4.00
2023-03-18T13:21:39.393Z,5.20
2023-03-18T13:24:05.850Z,4.60
2023-03-18T13:26:47.513Z,3.75
2023-03-18T13:29:14.058Z,7.00
2023-03-18T13:31:59.161Z,4.50
2023-03-18T13:34:41.428Z,7.50
2023-03-18T13:37:13.509Z,9.50
2023-03-18T13:39:49.120Z,5.33
2023-03-18T13:42:24.486Z,7.60
2023-03-18T13:45:06.976Z,11.50
2023-03-18T13:47:34.985Z,5.20
2023-03-18T13:50:06.761Z,7.20
2023-03-18T13:52:35.360Z,7.00
2023-03-18T13:55:04.707Z,5.00
2023-03-18T13:57:32.992Z,5.00
2023-03-18T14:00:13.354Z,7.40
2023-03-18T14:02:41.556Z,7.00
2023-03-18T14:05:31.494Z,6.00
2023-03-18T14:07:58.111Z,6.00
2023-03-18T14:10:25.150Z,7.60
2023-03-18T14:12:52.195Z,6.75
2023-03-18T14:15:31.072Z,6.00
2023-03-18T14:17:58.833Z,10.00
2023-03-18T14:20:38.866Z,6.80
2023-03-18T14:23:24.284Z,7.25
2023-03-18T14:25:59.665Z,5.00
2023-03-18T14:28:26.595Z,11.25
2023-03-18T14:30:56.399Z,5.25
2023-03-18T14:33:22.980Z,5.40
2023-03-18T14:35:53.402Z,7.50
2023-03-18T14:38:28.129Z,7.00
2023-03-18T14:40:56.549Z,6.00
2023-03-18T14:43:30.036Z,7.00
2023-03-18T14:45:58.886Z,7.75
2023-03-18T14:48:35.488Z,6.00
2023-03-18T14:51:13.241Z,5.00
2023-03-18T14:53:48.636Z,5.00
2023-03-18T14:56:19.701Z,6.00
2023-03-18T14:58:47.452Z,8.00
2023-03-18T15:01:16.215Z,5.60
2023-03-18T15:03:47.301Z,7.00
2023-03-18T15:06:21.970Z,6.50
2023-03-18T15:08:50.531Z,6.00
2023-03-18T15:11:19.452Z,6.00
2023-03-18T15:13:46.455Z,6.25
2023-03-18T15:16:14.458Z,6.40
2023-03-18T15:18:41.023Z,12.00
2023-03-18T15:21:07.456Z,6.75
2023-03-18T15:23:35.251Z,6.00
2023-03-18T15:26:14.853Z,4.60
2023-03-18T15:28:42.019Z,8.20
2023-03-18T15:31:08.766Z,8.20
2023-03-18T15:33:36.717Z,9.00
2023-03-18T15:36:05.969Z,7.00
2023-03-18T15:38:34.043Z,7.75
2023-03-18T15:41:12.319Z,7.00
2023-03-18T15:43:43.022Z,8.20
2023-03-18T15:46:17.103Z,7.60
2023-03-18T15:48:54.235Z,9.40
2023-03-18T15:51:25.879Z,8.00
2023-03-18T15:53:53.694Z,8.50
2023-03-18T15:56:25.439Z,6.00
2023-03-18T15:59:12.130Z,7.40
2023-03-18T16:01:39.905Z,7.00
2023-03-18T16:04:12.368Z,7.00
2023-03-18T16:06:39.516Z,7.00
2023-03-18T16:09:13.897Z,6.75
2023-03-18T16:11:40.454Z,6.60
2023-03-18T16:14:07.040Z,9.00
2023-03-18T16:16:34.733Z,7.00
2023-03-18T16:19:01.514Z,6.40
2023-03-18T16:21:28.002Z,7.00
2023-03-18T16:23:55.039Z,5.00
2023-03-18T16:26:21.645Z,6.40
2023-03-18T16:28:48.687Z,6.00
2023-03-18T16:31:15.448Z,7.00
2023-03-18T16:33:42.209Z,6.00
2023-03-18T16:36:14.548Z,9.40
2023-03-18T16:38:41.146Z,6.60
2023-03-18T16:41:08.115Z,11.50
2023-03-18T16:43:34.602Z,7.00
2023-03-18T16:46:04.166Z,6.60
2023-03-18T16:48:30.793Z,9.40
2023-03-18T16:50:59.706Z,12.40
2023-03-18T16:53:31.681Z,9.20
2023-03-18T16:55:59.975Z,8.20
2023-03-18T16:58:33.170Z,9.75
2023-03-18T17:01:00.070Z,8.25
2023-03-18T17:03:27.090Z,9.00
2023-03-18T17:05:53.844Z,10.00
2023-03-18T17:08:20.856Z,6.60
2023-03-18T17:10:49.454Z,7.00
2023-03-18T17:13:17.837Z,8.00
2023-03-18T17:15:45.093Z,7.20
2023-03-18T17:18:13.903Z,6.00
2023-03-18T17:20:41.511Z,7.00
2023-03-18T17:23:09.916Z,6.00
2023-03-18T17:25:36.417Z,6.00
2023-03-18T17:28:07.050Z,8.00
2023-03-18T17:30:38.306Z,16.50
2023-03-18T17:33:16.683Z,6.60
2023-03-18T17:35:43.189Z,13.00
2023-03-18T17:38:10.985Z,8.00
2023-03-18T17:40:37.583Z,15.75
2023-03-18T17:43:04.847Z,13.00
2023-03-18T17:45:33.610Z,7.80
2023-03-18T17:48:20.304Z,21.00
2023-03-18T17:50:51.136Z,9.00
2023-03-18T17:53:29.243Z,7.00
2023-03-18T17:55:56.047Z,17.25
2023-03-18T17:58:23.842Z,17.33
2023-03-18T18:00:51.774Z,11.50
2023-03-18T18:03:22.813Z,9.00
2023-03-18T18:05:49.293Z,10.00
2023-03-18T18:08:17.842Z,11.00
2023-03-18T18:10:45.023Z,8.60
2023-03-18T18:13:15.643Z,9.50
2023-03-18T18:15:42.415Z,15.75
2023-03-18T18:18:29.267Z,10.20
2023-03-18T18:21:02.668Z,8.00
2023-03-18T18:23:29.274Z,13.60
2023-03-18T18:25:56.574Z,9.20
2023-03-18T18:28:24.414Z,6.60
2023-03-18T18:30:50.967Z,8.50
2023-03-18T18:33:17.483Z,7.40
2023-03-18T18:35:43.919Z,10.50
2023-03-18T18:38:10.365Z,9.60
2023-03-18T18:40:36.880Z,11.25
2023-03-18T18:43:03.446Z,11.00
2023-03-18T18:45:30.378Z,7.00
2023-03-18T18:47:57.492Z,9.80
2023-03-18T18:50:27.258Z,7.50
2023-03-18T18:52:54.004Z,6.60
2023-03-18T18:55:20.456Z,9.00
2023-03-18T18:57:47.043Z,8.60
2023-03-18T19:00:17.727Z,8.33
2023-03-18T19:02:46.821Z,9.00
2023-03-18T19:05:14.594Z,10.00
2023-03-18T19:07:45.415Z,10.50
2023-03-18T19:10:15.868Z,12.50
2023-03-18T19:12:44.268Z,11.50
2023-03-18T19:15:13.411Z,8.40
2023-03-18T19:17:42.769Z,10.40
2023-03-18T19:20:35.650Z,10.80
2023-03-18T19:23:03.171Z,8.20
2023-03-18T19:25:29.647Z,15.60
2023-03-18T19:27:56.979Z,11.00
2023-03-18T19:30:24.380Z,11.00
2023-03-18T19:32:51.174Z,9.00
2023-03-18T19:35:17.764Z,13.25
2023-03-18T19:37:45.920Z,9.33
2023-03-18T19:40:23.223Z,14.75
2023-03-18T19:42:49.981Z,10.50
2023-03-18T19:45:16.819Z,9.00
2023-03-18T19:47:45.358Z,10.00
2023-03-18T19:50:15.740Z,8.00
2023-03-18T19:52:42.233Z,8.00
2023-03-18T19:55:12.774Z,8.20
2023-03-18T19:57:39.511Z,10.00
2023-03-18T20:00:16.665Z,10.60
2023-03-18T20:02:43.796Z,12.00
2023-03-18T20:05:18.676Z,16.00
2023-03-18T20:07:45.250Z,21.50
2023-03-18T20:10:12.863Z,13.50
2023-03-18T20:12:40.846Z,13.40
2023-03-18T20:15:12.487Z,13.25
2023-03-18T20:17:42.836Z,11.00
2023-03-18T20:20:23.333Z,12.75
2023-03-18T20:22:53.170Z,10.00
2023-03-18T20:25:28.516Z,10.00
2023-03-18T20:27:57.240Z,11.25
2023-03-18T20:30:25.719Z,9.00
2023-03-18T20:32:52.198Z,12.20
2023-03-18T20:35:19.435Z,14.00
2023-03-18T20:37:46.499Z,6.75
2023-03-18T20:40:18.470Z,7.20
2023-03-18T20:42:45.074Z,5.75
2023-03-18T20:45:15.712Z,6.25
2023-03-18T20:47:43.348Z,8.00
2023-03-18T20:50:13.640Z,14.00
2023-03-18T20:52:41.858Z,10.00
2023-03-18T20:55:18.953Z,8.00
2023-03-18T20:57:45.855Z,8.80
2023-03-18T21:00:19.027Z,14.00
2023-03-18T21:02:46.921Z,9.20
2023-03-18T21:05:14.065Z,8.80
2023-03-18T21:07:40.752Z,9.00
2023-03-18T21:10:07.980Z,7.40
2023-03-18T21:12:35.558Z,10.40
2023-03-18T21:15:02.110Z,12.00
2023-03-18T21:17:28.806Z,9.60
2023-03-18T21:20:11.192Z,11.40
2023-03-18T21:22:42.694Z,10.50
2023-03-18T21:25:15.070Z,17.50
2023-03-18T21:27:41.696Z,13.00
2023-03-18T21:30:09.786Z,14.40
2023-03-18T21:32:38.793Z,11.00
2023-03-18T21:35:06.038Z,10.00
2023-03-18T21:37:32.540Z,8.00
2023-03-18T21:39:58.974Z,10.00
2023-03-18T21:42:27.951Z,9.20
2023-03-18T21:44:55.006Z,13.25
2023-03-18T21:47:22.784Z,10.00
2023-03-18T21:49:49.798Z,9.00
2023-03-18T21:52:29.940Z,14.25
2023-03-18T21:54:56.734Z,9.60
2023-03-18T21:57:23.814Z,9.60
2023-03-18T21:59:51.343Z,8.60
2023-03-18T22:02:26.717Z,8.20
2023-03-18T22:04:53.689Z,11.00
2023-03-18T22:07:22.956Z,15.50
2023-03-18T22:09:49.665Z,11.00
2023-03-18T22:12:29.690Z,10.60
2023-03-18T22:14:56.632Z,9.00
2023-03-18T22:17:26.322Z,9.00
2023-03-18T22:19:53.617Z,12.00
2023-03-18T22:22:22.350Z,10.00
2023-03-18T22:24:49.649Z,6.00
2023-03-18T22:27:20.595Z,9.50
2023-03-18T22:29:47.361Z,8.50
2023-03-18T22:32:35.681Z,8.60
2023-03-18T22:35:02.442Z,12.00
2023-03-18T22:37:28.909Z,10.00
2023-03-18T22:39:55.379Z,8.40
2023-03-18T22:42:24.019Z,11.00
2023-03-18T22:44:51.036Z,12.75
2023-03-18T22:47:18.806Z,13.00
2023-03-18T22:49:45.896Z,12.00
2023-03-18T22:52:29.545Z,7.25
2023-03-18T22:54:58.173Z,10.00
2023-03-18T22:57:26.963Z,9.00
2023-03-18T22:59:54.304Z,11.00
2023-03-18T23:02:27.908Z,12.20
2023-03-18T23:04:55.542Z,11.00
2023-03-18T23:07:32.331Z,10.00
2023-03-18T23:10:00.459Z,9.20
2023-03-18T23:12:27.566Z,9.00
2023-03-18T23:14:54.144Z,14.33
2023-03-18T23:17:21.990Z,13.00
2023-03-18T23:19:48.663Z,8.50
2023-03-18T23:22:19.205Z,9.00
2023-03-18T23:24:45.989Z,9.00
2023-03-18T23:27:12.495Z,10.80
2023-03-18T23:29:38.940Z,11.00
2023-03-18T23:32:05.947Z,10.60
2023-03-18T23:34:32.365Z,12.00
2023-03-18T23:36:58.886Z,12.00
2023-03-18T23:39:25.668Z,11.40
2023-03-18T23:41:52.101Z,14.00
2023-03-18T23:44:18.678Z,18.00
2023-03-18T23:46:45.257Z,31.20
2023-03-18T23:49:13.248Z,35.00
2023-03-18T23:51:39.857Z,29.00
2023-03-18T23:54:06.965Z,28.75
2023-03-18T23:56:33.397Z,34.00
2023-03-18T23:59:00.008Z,26.00
